Time;durP1;ratioP1;P1;durP2;ratioP2;P2;SDS_P1;SDS_P2;PMS_P1;PMS_P2;Temp;Humidity;BMP_temperature;BMP_pressure;BME280_temperature;BME280_humidity;BME280_pressure;Samples;Min_cycle;Max_cycle;Signal;HPM_P1;HPM_P2
2023/10/26 00:00:22;;;;;;;20.88;13.00;;;;;;;;;;5040533;28;20056;-91
2023/10/26 00:02:48;;;;;;;23.23;13.27;;;;;;;;;;5041259;28;20044;-88
2023/10/26 00:05:14;;;;;;;17.15;12.88;;;;;;;;;;5040694;28;20127;-87
2023/10/26 00:07:41;;;;;;;23.83;13.60;;;;;;;;;;5056995;28;20041;-89
2023/10/26 00:10:07;;;;;;;19.92;12.60;;;;;;;;;;5057293;28;20076;-92
2023/10/26 00:12:33;;;;;;;18.92;12.02;;;;;;;;;;5074780;28;20493;-90
2023/10/26 00:14:59;;;;;;;28.25;13.40;;;;;;;;;;5057293;28;20053;-93
2023/10/26 00:17:25;;;;;;;21.17;12.55;;;;;;;;;;5075093;28;20040;-91
2023/10/26 00:19:54;;;;;;;21.33;13.02;;;;;;;;;;5056842;28;20056;-92
2023/10/26 00:22:21;;;;;;;22.02;13.32;;;;;;;;;;5040505;28;20051;-90
2023/10/26 00:24:47;;;;;;;22.00;12.35;;;;;;;;;;5040056;28;20036;-89
2023/10/26 00:27:16;;;;;;;20.13;13.52;;;;;;;;;;5040498;28;20048;-92
2023/10/26 00:29:43;;;;;;;22.55;13.43;;;;;;;;;;5057291;28;20049;-91
2023/10/26 00:32:09;;;;;;;17.63;12.18;;;;;;;;;;5058776;28;20044;-89
2023/10/26 00:34:35;;;;;;;28.60;14.48;;;;;;;;;;5057383;28;20052;-94
2023/10/26 00:37:02;;;;;;;22.80;13.30;;;;;;;;;;5040935;28;20102;-94
2023/10/26 00:39:28;;;;;;;27.83;13.25;;;;;;;;;;5057442;28;20106;-90
2023/10/26 00:41:54;;;;;;;20.25;12.77;;;;;;;;;;5040250;28;20618;-88
2023/10/26 00:44:21;;;;;;;22.13;11.38;;;;;;;;;;5057391;28;20512;-90
2023/10/26 00:46:48;;;;;;;17.23;11.85;;;;;;;;;;5055913;28;20497;-87
2023/10/26 00:49:15;;;;;;;17.45;12.68;;;;;;;;;;5040190;28;20036;-85
2023/10/26 00:51:50;;;;;;;20.08;12.68;;;;;;;;;;5039752;28;20129;-88
2023/10/26 00:54:17;;;;;;;21.15;12.93;;;;;;;;;;5056063;28;20090;-86
2023/10/26 00:56:43;;;;;;;20.52;12.48;;;;;;;;;;5056055;28;20070;-85
2023/10/26 00:59:10;;;;;;;22.90;13.85;;;;;;;;;;5041701;28;20045;-87
2023/10/26 01:01:36;;;;;;;19.10;13.73;;;;;;;;;;5056333;28;20037;-89
2023/10/26 01:04:02;;;;;;;18.52;13.65;;;;;;;;;;5056254;28;20506;-89
2023/10/26 01:06:28;;;;;;;24.77;14.82;;;;;;;;;;5057163;28;20047;-89
2023/10/26 01:08:54;;;;;;;20.40;14.77;;;;;;;;;;5057074;28;20048;-89
2023/10/26 01:11:21;;;;;;;38.65;13.82;;;;;;;;;;5056948;28;20036;-91
2023/10/26 01:13:48;;;;;;;64.03;15.00;;;;;;;;;;5057723;28;20047;-92
2023/10/26 01:16:15;;;;;;;147.98;18.65;;;;;;;;;;5060034;28;20075;-93
2023/10/26 01:18:41;;;;;;;25.85;12.50;;;;;;;;;;5027259;28;20045;-87
2023/10/26 01:21:09;;;;;;;29.35;11.15;;;9.70;99.90;;;;;;5074826;28;20080;-84
2023/10/26 01:23:35;;;;;;;80.65;15.05;;;;;;;;;;5075780;28;20076;-83
2023/10/26 01:26:02;;;;;;;82.22;15.25;;;;;;;;;;5056661;28;20044;-88
2023/10/26 01:28:28;;;;;;;110.25;17.33;;;;;;;;;;5057867;28;20044;-84
2023/10/26 01:30:54;;;;;;;98.25;16.45;;;;;;;;;;5053831;28;20451;-90
2023/10/26 01:33:20;;;;;;;59.10;15.38;;;;;;;;;;5063476;28;20036;-85
2023/10/26 01:35:47;;;;;;;49.38;14.52;;;;;;;;;;5063517;28;20044;-86
2023/10/26 01:38:13;;;;;;;29.60;12.60;;;;;;;;;;5061593;28;20048;-83
2023/10/26 01:40:40;;;;;;;26.10;14.85;;;;;;;;;;5063884;28;20052;-83
2023/10/26 01:43:06;;;;;;;31.05;15.32;;;;;;;;;;5063968;28;20048;-91
2023/10/26 01:45:32;;;;;;;22.55;15.35;;;;;;;;;;5048363;28;20465;-90
2023/10/26 01:48:03;;;;;;;19.92;14.88;;;;;;;;;;5065387;28;20090;-87
2023/10/26 01:50:30;;;;;;;21.45;14.88;;;;;;;;;;5052118;28;20040;-88
2023/10/26 01:52:57;;;;;;;21.83;14.85;;;;;;;;;;5067434;28;20056;-88
2023/10/26 01:55:23;;;;;;;23.92;14.10;;;;;;;;;;5066458;28;20079;-92
2023/10/26 01:57:49;;;;;;;20.83;14.27;;;;;;;;;;5060664;28;20044;-88
2023/10/26 02:00:15;;;;;;;21.00;14.18;;;;;;;;;;5067019;28;20098;-89
2023/10/26 02:02:41;;;;;;;24.33;15.90;;;;;;;;;;5048092;28;20045;-85
2023/10/26 02:05:08;;;;;;;28.42;18.30;;;;;;;;;;5072659;28;20052;-86
2023/10/26 02:07:34;;;;;;;28.08;17.85;;;;;;;;;;5060449;28;20070;-83
2023/10/26 02:10:00;;;;;;;26.42;17.88;;;;;;;;;;5072877;28;20048;-83
2023/10/26 02:12:26;;;;;;;30.77;20.55;;;;;;;;;;5070917;28;20102;-85
2023/10/26 02:14:52;;;;;;;32.67;18.50;;;;;;;;;;5070664;28;20052;-92
2023/10/26 02:17:18;;;;;;;25.90;17.10;;;;;;;;;;5043873;28;20046;-87
2023/10/26 02:19:44;;;;;;;26.67;18.90;;;;;;;;;;5065821;28;20088;-87
2023/10/26 02:22:10;;;;;;;28.65;19.33;;;;;;;;;;5066723;28;20047;-85
2023/10/26 02:24:36;;;;;;;29.83;17.25;;;;;;;;;;5049928;28;20512;-85
2023/10/26 02:27:02;;;;;;;26.55;17.98;;;;;;;;;;5065644;28;20494;-86
2023/10/26 02:29:28;;;;;;;31.73;19.23;;;;;;;;;;5063645;28;20041;-83
2023/10/26 02:31:54;;;;;;;27.45;18.65;;;;;;;;;;5048253;28;20036;-87
2023/10/26 02:34:20;;;;;;;26.80;17.98;;;;;;;;;;5063036;28;20091;-85
2023/10/26 02:36:47;;;;;;;30.13;19.67;;;;;;;;;;5062251;28;20048;-89
2023/10/26 02:39:13;;;;;;;34.97;20.00;;;;;;;;;;5062120;28;20068;-87
2023/10/26 02:41:39;;;;;;;32.40;20.45;;;;;;;;;;5063479;28;20055;-88
2023/10/26 02:44:05;;;;;;;28.05;18.70;;;;;;;;;;5045234;28;20037;-86
2023/10/26 02:46:31;;;;;;;25.95;17.98;;;;;;;;;;5040437;28;20416;-91
2023/10/26 02:48:57;;;;;;;30.13;18.23;;;;;;;;;;5037813;28;20488;-88
2023/10/26 02:51:24;;;;;;;30.88;18.63;;;;;;;;;;5038244;28;20049;-86
2023/10/26 02:53:50;;;;;;;27.00;17.98;;;;;;;;;;5054233;28;20120;-87
2023/10/26 02:56:16;;;;;;;27.25;18.73;;;;;;;;;;5054080;28;20102;-89
2023/10/26 02:58:42;;;;;;;33.25;19.33;;;;;;;;;;5020997;28;20036;-88
2023/10/26 03:01:08;;;;;;;31.75;20.85;;;;;;;;;;5037685;28;20481;-85
2023/10/26 03:03:34;;;;;;;31.30;20.65;;;;;;;;;;5053448;28;20794;-87
2023/10/26 03:06:01;;;;;;;37.72;21.40;;;9.50;99.90;;;;;;5072124;28;20090;-88
2023/10/26 03:08:27;;;;;;;33.85;20.75;;;;;;;;;;5072624;28;20485;-91
2023/10/26 03:10:53;;;;;;;32.83;19.52;;;;;;;;;;5074385;28;20569;-90
2023/10/26 03:13:19;;;;;;;31.60;19.85;;;;;;;;;;5076307;28;20067;-84
2023/10/26 03:15:45;;;;;;;31.70;20.15;;;;;;;;;;5058463;28;20037;-90
2023/10/26 03:18:11;;;;;;;29.23;19.95;;;;;;;;;;5041167;28;20044;-89
2023/10/26 03:20:37;;;;;;;36.97;22.17;;;;;;;;;;5075716;28;20048;-88
2023/10/26 03:23:03;;;;;;;30.58;20.23;;;;;;;;;;5058360;28;20044;-89
2023/10/26 03:25:29;;;;;;;44.85;21.25;;;;;;;;;;5058257;28;20052;-87
2023/10/26 03:27:55;;;;;;;31.92;20.58;;;;;;;;;;5057815;28;20413;-89
2023/10/26 03:30:21;;;;;;;31.98;19.33;;;;;;;;;;5041130;28;20046;-92
2023/10/26 03:32:47;;;;;;;27.02;18.20;;;;;;;;;;5041695;28;20120;-90
2023/10/26 03:35:13;;;;;;;32.65;17.02;;;;;;;;;;5041019;28;20041;-89
2023/10/26 03:37:39;;;;;;;32.88;19.48;;;;;;;;;;5040358;28;20048;-88
2023/10/26 03:40:06;;;;;;;31.35;19.35;;;;;;;;;;5058690;28;20052;-88
2023/10/26 03:42:32;;;;;;;30.60;19.38;;;;;;;;;;5057583;28;20051;-89
2023/10/26 03:44:58;;;;;;;32.92;20.00;;;;;;;;;;5057348;28;20050;-86
2023/10/26 03:47:24;;;;;;;37.00;20.98;;;;;;;;;;5056689;28;20039;-87
2023/10/26 03:49:52;;;;;;;33.00;19.02;;;;;;;;;;5056929;28;20045;-86
2023/10/26 03:52:21;;;;;;;35.22;21.00;;;;;;;;;;5040064;28;20135;-89
2023/10/26 03:54:47;;;;;;;36.08;20.77;;;;;;;;;;5056081;28;20057;-90
2023/10/26 03:57:14;;;;;;;31.63;19.95;;;;;;;;;;5039974;28;20040;-84
2023/10/26 03:59:40;;;;;;;36.90;20.50;;;;;;;;;;5056314;28;20084;-84
2023/10/26 04:02:07;;;;;;;101.95;23.90;;;;;;;;;;5056459;28;20047;-86
2023/10/26 04:04:33;;;;;;;510.02;54.58;;;;;;;;;;5038755;28;20047;-87
2023/10/26 04:06:59;;;;;;;256.00;30.88;;;;;;;;;;5039854;28;20046;-88
2023/10/26 04:09:25;;;;;;;58.50;16.95;;;;;;;;;;5044920;28;20104;-79
2023/10/26 04:11:51;;;;;;;43.47;17.95;;;;;;;;;;5048279;28;20521;-86
2023/10/26 04:14:18;;;;;;;26.05;14.45;;;;;;;;;;5062829;28;20047;-86
2023/10/26 04:16:47;;;;;;;30.40;17.13;;;;;;;;;;5045038;28;20040;-95
2023/10/26 04:19:14;;;;;;;69.35;18.92;;;;;;;;;;5041363;28;20053;-91
2023/10/26 04:21:40;;;;;;;71.75;19.33;;;;;;;;;;5056296;28;20059;-86
2023/10/26 04:24:06;;;;;;;27.25;17.52;;;;;;;;;;5057059;28;20044;-83
2023/10/26 04:26:32;;;;;;;199.93;26.85;;;;;;;;;;5041113;28;20090;-81
2023/10/26 04:28:58;;;;;;;91.35;18.02;;;;;;;;;;5040724;28;20519;-81
2023/10/26 04:31:25;;;;;;;26.92;14.10;;;;;;;;;;5042668;28;20040;-87
2023/10/26 04:33:51;;;;;;;137.43;20.10;;;;;;;;;;5040290;28;20041;-88
2023/10/26 04:36:20;;;;;;;105.82;18.15;;;8.60;99.90;;;;;;5040018;28;20044;-78
2023/10/26 04:38:46;;;;;;;28.88;14.55;;;;;;;;;;5040077;28;20037;-85
2023/10/26 04:41:12;;;;;;;252.52;26.13;;;;;;;;;;5039534;28;20040;-86
2023/10/26 04:43:38;;;;;;;171.20;21.67;;;;;;;;;;5056576;28;20086;-87
2023/10/26 04:46:04;;;;;;;16.20;11.25;;;;;;;;;;5056745;28;20044;-84
2023/10/26 04:48:30;;;;;;;71.30;15.18;;;;;;;;;;5039944;28;20036;-85
2023/10/26 04:50:56;;;;;;;61.33;14.40;;;;;;;;;;5056316;28;20040;-90
2023/10/26 04:53:22;;;;;;;27.20;14.43;;;;;;;;;;5056312;28;20143;-92
2023/10/26 04:55:48;;;;;;;25.67;15.10;;;;;;;;;;5056064;28;20060;-79
2023/10/26 04:58:14;;;;;;;48.92;16.17;;;;;;;;;;5023235;28;20040;-86
2023/10/26 05:00:40;;;;;;;255.93;26.35;;;;;;;;;;5023220;28;20488;-91
2023/10/26 05:03:06;;;;;;;321.08;32.28;;;;;;;;;;5056135;28;20052;-92
2023/10/26 05:05:32;;;;;;;231.35;25.45;;;;;;;;;;5055477;28;20055;-89
2023/10/26 05:07:58;;;;;;;341.02;29.90;;;;;;;;;;5056285;28;20489;-88
2023/10/26 05:10:25;;;;;;;414.63;37.97;;;;;;;;;;5039263;28;20170;-95
2023/10/26 05:12:51;;;;;;;270.58;26.98;;;;;;;;;;5056329;28;20044;-96
2023/10/26 05:15:18;;;;;;;151.93;21.52;;;;;;;;;;5055724;28;20500;-90
2023/10/26 05:17:44;;;;;;;282.52;28.80;;;;;;;;;;5055061;28;20082;-95
2023/10/26 05:20:11;;;;;;;382.77;33.35;;;;;;;;;;5056684;28;20173;-96
2023/10/26 05:22:37;;;;;;;323.85;28.17;;;;;;;;;;5056130;28;20397;-95
2023/10/26 05:25:08;;;;;;;338.95;28.63;;;;;;;;;;5056490;28;20051;-90
2023/10/26 05:27:34;;;;;;;335.50;28.38;;;;;;;;;;5039228;28;20197;-96
2023/10/26 05:30:00;;;;;;;264.02;25.63;;;;;;;;;;5057093;28;20413;-96
2023/10/26 05:32:26;;;;;;;299.20;24.10;;;8.40;99.60;;;;;;5056312;28;20059;-95
2023/10/26 05:34:52;;;;;;;287.75;22.98;;;;;;;;;;5055802;28;20054;-96
2023/10/26 05:37:18;;;;;;;217.98;20.20;;;;;;;;;;5056237;28;20059;-93
2023/10/26 05:39:44;;;;;;;268.95;24.35;;;;;;;;;;5038044;28;20178;-91
2023/10/26 05:42:10;;;;;;;325.40;27.33;;;;;;;;;;5055792;28;20060;-96
2023/10/26 05:44:36;;;;;;;160.63;18.75;;;;;;;;;;5073487;28;20055;-95
2023/10/26 05:47:03;;;;;;;250.07;23.42;;;;;;;;;;5056023;28;20128;-94
2023/10/26 05:49:29;;;;;;;434.67;33.22;;;;;;;;;;5054576;28;20056;-91
2023/10/26 05:51:57;;;;;;;180.80;19.75;;;;;;;;;;5039057;28;20110;-91
2023/10/26 05:54:23;;;;;;;176.48;19.60;;;;;;;;;;5039048;28;20064;-94
2023/10/26 05:56:49;;;;;;;182.13;19.42;;;;;;;;;;5038994;28;20094;-91
2023/10/26 05:59:15;;;;;;;84.45;13.68;;;;;;;;;;5038729;28;20056;-93
2023/10/26 06:01:41;;;;;;;221.90;17.40;;;;;;;;;;5038408;28;20051;-91
2023/10/26 06:04:07;;;;;;;240.77;19.63;;;;;;;;;;5055456;28;20127;-90
2023/10/26 06:06:33;;;;;;;251.45;22.17;;;;;;;;;;5039205;28;20051;-84
2023/10/26 06:08:59;;;;;;;61.42;11.93;;;;;;;;;;5055177;28;20052;-93
2023/10/26 06:11:26;;;;;;;244.70;25.05;;;;;;;;;;5039228;28;20052;-93
2023/10/26 06:13:52;;;;;;;78.32;14.25;;;;;;;;;;5038534;28;20041;-85
2023/10/26 06:16:18;;;;;;;77.55;14.40;;;;;;;;;;5038562;28;20048;-87
2023/10/26 06:18:44;;;;;;;234.90;19.50;;;;;;;;;;5038585;28;20036;-83
2023/10/26 06:21:10;;;;;;;205.38;17.27;;;;;;;;;;5037974;28;20040;-92
2023/10/26 06:23:36;;;;;;;283.08;20.65;;;;;;;;;;5038365;28;20048;-96
2023/10/26 06:26:03;;;;;;;233.98;20.40;;;;;;;;;;5039124;28;20132;-96
2023/10/26 06:28:29;;;;;;;199.23;18.50;;;;;;;;;;5038710;28;20139;-93
2023/10/26 06:30:55;;;;;;;375.80;26.20;;;;;;;;;;5039109;28;20049;-96
2023/10/26 06:33:21;;;;;;;204.77;20.33;;;;;;;;;;5055153;28;20079;-94
2023/10/26 06:35:48;;;;;;;232.95;22.30;;;;;;;;;;5038092;28;20052;-89
2023/10/26 06:38:14;;;;;;;374.77;28.95;;;;;;;;;;5059729;28;20047;-84
2023/10/26 06:40:40;;;;;;;307.88;22.15;;;;;;;;;;5061745;28;20094;-87
2023/10/26 06:43:06;;;;;;;332.27;25.33;;;;;;;;;;5043300;28;20037;-91
2023/10/26 06:45:33;;;;;;;124.90;17.85;;;;;;;;;;5058234;28;20046;-81
2023/10/26 06:47:59;;;;;;;321.90;25.25;;;;;;;;;;5059252;28;20459;-91
2023/10/26 06:50:25;;;;;;;250.52;22.05;;;;;;;;;;5041957;28;20051;-84
2023/10/26 06:52:52;;;;;;;286.00;23.10;;;;;;;;;;5041707;28;20049;-91
2023/10/26 06:55:18;;;;;;;160.02;17.23;;;;;;;;;;5041425;28;20540;-87
2023/10/26 06:57:44;;;;;;;244.25;22.05;;;;;;;;;;5041552;28;20489;-86
2023/10/26 07:00:10;;;;;;;173.55;18.20;;;;;;;;;;5058616;28;20040;-85
2023/10/26 07:02:37;;;;;;;199.23;23.95;;;7.70;99.90;;;;;;5023932;28;20048;-90
2023/10/26 07:05:06;;;;;;;94.72;15.40;;;;;;;;;;5058702;28;20060;-87
2023/10/26 07:07:36;;;;;;;175.48;22.20;;;;;;;;;;5057480;28;20564;-85
2023/10/26 07:10:02;;;;;;;228.73;23.77;;;;;;;;;;5058006;28;20060;-88
2023/10/26 07:12:30;;;;;;;243.70;27.80;;;;;;;;;;5058206;28;20401;-84
2023/10/26 07:14:59;;;;;;;105.85;17.40;;;;;;;;;;5057513;28;20571;-85
2023/10/26 07:17:25;;;;;;;230.40;24.00;;;;;;;;;;5058292;28;20083;-86
2023/10/26 07:19:51;;;;;;;172.10;22.38;;;;;;;;;;5057866;28;20036;-92
2023/10/26 07:22:17;;;;;;;150.45;19.63;;;;;;;;;;5075893;28;20045;-86
2023/10/26 07:24:43;;;;;;;174.00;22.00;;;;;;;;;;5024556;28;20048;-81
2023/10/26 07:27:09;;;;;;;277.00;28.70;;;;;;;;;;5041347;28;20444;-94
2023/10/26 07:29:35;;;;;;;98.40;17.73;;;;;;;;;;5041491;28;20049;-94
2023/10/26 07:32:02;;;;;;;149.30;21.58;;;;;;;;;;5058207;28;20036;-95
2023/10/26 07:34:28;;;;;;;118.35;18.90;;;;;;;;;;5057953;28;20048;-95
2023/10/26 07:36:54;;;;;;;77.35;17.50;;;;;;;;;;5058626;28;20053;-95
2023/10/26 07:39:21;;;;;;;88.80;16.88;;;;;;;;;;5044140;28;20097;-95
2023/10/26 07:41:47;;;;;;;73.07;16.17;;;;;;;;;;5045640;28;20127;-82
2023/10/26 07:44:13;;;;;;;25.55;14.27;;;;;;;;;;5040838;28;20052;-81
2023/10/26 07:46:39;;;;;;;53.03;15.95;;;;;;;;;;5076661;28;20044;-88
2023/10/26 07:49:05;;;;;;;30.80;13.75;;;;;;;;;;5058427;28;20040;-90
2023/10/26 07:51:31;;;;;;;43.45;14.15;;;;;;;;;;5074804;28;20047;-81
2023/10/26 07:53:57;;;;;;;42.88;16.15;;;;;;;;;;5040327;28;20437;-89
2023/10/26 07:56:23;;;;;;;85.20;17.67;;;;;;;;;;5040691;28;20048;-93
2023/10/26 07:58:49;;;;;;;28.95;14.85;;;;;;;;;;5056881;28;20094;-88
2023/10/26 08:01:16;;;;;;;34.72;16.75;;;;;;;;;;5040148;28;20070;-87
2023/10/26 08:03:42;;;;;;;26.98;15.13;;;;;;;;;;5039849;28;20068;-85
2023/10/26 08:06:09;;;;;;;26.23;15.98;;;;;;;;;;5056497;28;20078;-87
2023/10/26 08:08:35;;;;;;;26.85;16.65;;;;;;;;;;5039675;28;20408;-83
2023/10/26 08:11:09;;;;;;;31.13;18.73;;;8.20;99.90;;;;;;5039834;28;20386;-79
2023/10/26 08:13:35;;;;;;;;;;;;;;;;;;5056375;28;20122;-77
2023/10/26 08:16:01;;;;;;;27.88;17.65;;;;;;;;;;5056199;28;20394;-79
2023/10/26 08:18:27;;;;;;;33.72;19.45;;;;;;;;;;5039704;28;20036;-78
2023/10/26 08:20:53;;;;;;;45.72;22.63;;;;;;;;;;5038949;28;20037;-81
2023/10/26 08:23:20;;;;;;;42.85;23.00;;;;;;;;;;5019040;28;20044;-80
2023/10/26 08:25:47;;;;;;;47.08;24.25;;;;;;;;;;5041320;28;20128;-77
2023/10/26 08:28:14;;;;;;;51.13;24.52;;;;;;;;;;5055619;28;20501;-87
2023/10/26 08:30:40;;;;;;;42.40;23.65;;;;;;;;;;5056326;28;20060;-89
2023/10/26 08:33:06;;;;;;;45.65;24.63;;;;;;;;;;5039179;28;20041;-89
2023/10/26 08:35:32;;;;;;;48.70;26.10;;;;;;;;;;5039820;28;20052;-90
2023/10/26 08:37:58;;;;;;;40.85;22.70;;;;;;;;;;5039876;28;20117;-82
2023/10/26 08:40:24;;;;;;;45.85;24.20;;;;;;;;;;5056157;28;20072;-86
2023/10/26 08:42:51;;;;;;;49.25;24.48;;;;;;;;;;5056199;28;20083;-86
2023/10/26 08:45:26;;;;;;;47.10;24.83;;;;;;;;;;5056358;28;20044;-87
2023/10/26 08:47:54;;;;;;;50.17;24.35;;;9.40;99.90;;;;;;5056798;28;20051;-94
2023/10/26 08:50:22;;;;;;;42.33;23.20;;;9.40;99.90;;;;;;5038970;28;20040;-92
2023/10/26 08:52:48;;;;;;;43.00;22.88;;;;;;;;;;5039407;28;20056;-86
2023/10/26 08:55:15;;;;;;;41.50;23.58;;;9.20;99.90;;;;;;5054740;28;20513;-82
2023/10/26 08:57:47;;;;;;;45.20;22.98;;;9.60;99.90;;;;;;5040054;28;20052;-84
2023/10/26 09:00:13;;;;;;;40.28;21.10;;;;;;;;;;5057395;28;20082;-91
2023/10/26 09:02:39;;;;;;;40.28;20.73;;;9.60;99.90;;;;;;5058258;28;20048;-90
2023/10/26 09:05:08;;;;;;;48.00;23.13;;;;;;;;;;5041781;28;20051;-85
2023/10/26 09:07:34;;;;;;;48.13;26.85;;;;;;;;;;5040345;28;20044;-88
2023/10/26 09:10:01;;;;;;;40.90;22.42;;;;;;;;;;5039463;28;20091;-81
2023/10/26 09:12:27;;;;;;;34.33;20.02;;;;;;;;;;5039501;28;20036;-84
2023/10/26 09:15:06;;;;;;;41.97;20.83;;;;;;;;;;5039195;28;20048;-90
2023/10/26 09:17:32;;;;;;;45.30;21.73;;;;;;;;;;5039082;28;20493;-88
2023/10/26 09:19:59;;;;;;;27.13;18.60;;;;;;;;;;5039042;28;20124;-93
2023/10/26 09:22:39;;;;;;;34.38;19.52;;;10.00;99.90;;;;;;5055699;28;20040;-89
2023/10/26 09:25:12;;;;;;;28.30;17.52;;;9.90;99.90;;;;;;5055065;28;21478;-90
2023/10/26 09:27:39;;;;;;;39.90;20.45;;;9.80;99.90;;;;;;5038753;28;20046;-87
2023/10/26 09:30:06;;;;;;;36.33;20.38;;;;;;;;;;5038582;28;20052;-86
2023/10/26 09:32:33;;;;;;;37.08;20.92;;;9.90;99.90;;;;;;5073349;28;20051;-88
2023/10/26 09:34:59;;;;;;;34.22;18.52;;;;;;;;;;5055201;28;20107;-89
2023/10/26 09:37:26;;;;;;;30.08;19.70;;;;;;;;;;5073309;28;20033;-92
2023/10/26 09:39:52;;;;;;;35.50;20.33;;;;;;;;;;5054744;28;20076;-92
2023/10/26 09:42:19;;;;;;;38.75;21.60;;;;;;;;;;5055229;28;20107;-90
2023/10/26 09:44:45;;;;;;;42.05;22.40;;;;;;;;;;5038839;28;20123;-89
2023/10/26 09:47:12;;;;;;;37.25;22.30;;;;;;;;;;5054555;28;20036;-89
2023/10/26 09:49:38;;;;;;;36.45;20.83;;;;;;;;;;5038285;28;20102;-91
2023/10/26 09:52:04;;;;;;;43.40;23.83;;;;;;;;;;5055396;28;20099;-89
2023/10/26 09:54:32;;;;;;;46.35;23.63;;;;;;;;;;5037944;28;20155;-87
2023/10/26 09:57:07;;;;;;;38.33;22.75;;;10.10;99.90;;;;;;5038970;28;20130;-89
2023/10/26 09:59:33;;;;;;;34.80;21.48;;;;;;;;;;5054097;28;20052;-90
2023/10/26 10:02:15;;;;;;;41.70;22.92;;;10.20;99.90;;;;;;5038444;28;20079;-92
2023/10/26 10:04:41;;;;;;;38.00;23.15;;;;;;;;;;5038380;28;20127;-84
2023/10/26 10:07:07;;;;;;;41.60;22.42;;;;;;;;;;5054774;28;20048;-90
2023/10/26 10:09:53;;;;;;;37.67;21.95;;;;;;;;;;5054487;28;20037;-90
2023/10/26 10:12:19;;;;;;;32.85;20.02;;;;;;;;;;5038070;28;20079;-90
2023/10/26 10:14:52;;;;;;;33.38;20.95;;;;;;;;;;5054786;28;20060;-92
2023/10/26 10:17:19;;;;;;;37.92;21.88;;;;;;;;;;5055169;28;20164;-92
2023/10/26 10:19:46;;;;;;;42.35;21.95;;;;;;;;;;5055520;28;20143;-85
2023/10/26 10:22:33;;;;;;;40.28;21.35;;;10.20;99.90;;;;;;5077166;28;20126;-88
2023/10/26 10:24:59;;;;;;;35.80;20.92;;;;;;;;;;5076940;28;20048;-92
2023/10/26 10:27:26;;;;;;;33.00;21.88;;;;;;;;;;5058918;28;20055;-92
2023/10/26 10:30:02;;;;;;;37.78;19.73;;;10.10;99.90;;;;;;5058058;28;20509;-84
2023/10/26 10:32:44;;;;;;;28.70;19.33;;;;;;;;;;5058667;28;20036;-92
2023/10/26 10:35:10;;;;;;;30.75;18.00;;;;;;;;;;5058709;28;20044;-92
2023/10/26 10:37:37;;;;;;;27.67;17.67;;;;;;;;;;5058931;28;20048;-89
2023/10/26 10:40:10;;;;;;;30.85;18.98;;;;;;;;;;5076532;28;20481;-85
2023/10/26 10:42:39;;;;;;;35.50;19.27;;;10.40;99.90;;;;;;5058554;28;20055;-90
2023/10/26 10:45:11;;;;;;;31.35;19.45;;;10.40;99.90;;;;;;5058313;28;20048;-88
2023/10/26 10:47:37;;;;;;;27.90;19.85;;;;;;;;;;5058692;28;20052;-92
2023/10/26 10:50:17;;;;;;;29.83;18.33;;;10.30;99.90;;;;;;5058440;28;20048;-93
2023/10/26 10:52:43;;;;;;;31.65;19.83;;;;;;;;;;5041997;28;20404;-89
2023/10/26 10:55:10;;;;;;;27.83;19.42;;;;;;;;;;5058624;28;20059;-92
2023/10/26 10:57:51;;;;;;;27.92;17.85;;;;;;;;;;5041121;28;20040;-86
2023/10/26 11:00:16;;;;;;;34.15;19.65;;;10.50;99.90;;;;;;5041547;28;20052;-85
2023/10/26 11:02:49;;;;;;;33.95;20.92;;;;;;;;;;5058264;28;20131;-88
2023/10/26 11:05:16;;;;;;;31.55;19.52;;;10.50;99.90;;;;;;5075244;28;20048;-91
2023/10/26 11:07:42;;;;;;;37.33;21.75;;;10.50;99.90;;;;;;5058142;28;20052;-90
2023/10/26 11:10:08;;;;;;;35.58;23.35;;;;;;;;;;5057432;28;20527;-86
2023/10/26 11:12:35;;;;;;;36.33;22.75;;;;;;;;;;5057910;28;20032;-88
2023/10/26 11:15:01;;;;;;;29.58;19.98;;;;;;;;;;5057810;28;20048;-91
2023/10/26 11:17:28;;;;;;;33.95;20.25;;;;;;;;;;5040987;28;20036;-89
2023/10/26 11:19:54;;;;;;;27.02;19.38;;;;;;;;;;5075130;28;20464;-92
2023/10/26 11:22:21;;;;;;;33.92;19.65;;;;;;;;;;5059725;28;20059;-91
2023/10/26 11:24:47;;;;;;;37.20;22.17;;;10.70;99.90;;;;;;5041819;28;20055;-90
2023/10/26 11:27:16;;;;;;;33.60;22.08;;;10.70;99.90;;;;;;5058821;28;20041;-85
2023/10/26 11:29:43;;;;;;;29.25;19.65;;;10.60;99.90;;;;;;5057537;28;20063;-91
2023/10/26 11:32:19;;;;;;;31.77;20.35;;;;;;;;;;5040458;28;20068;-80
2023/10/26 11:35:05;;;;;;;30.70;21.08;;;10.70;99.90;;;;;;5057227;28;20106;-88
2023/10/26 11:37:32;;;;;;;29.15;20.05;;;;;;;;;;5040946;28;20045;-87
2023/10/26 11:39:58;;;;;;;30.77;20.02;;;11.00;99.90;;;;;;5057237;28;20049;-81
2023/10/26 11:42:43;;;;;;;28.67;19.85;;;10.80;99.90;;;;;;5074515;28;20485;-84
2023/10/26 11:45:09;;;;;;;31.52;19.38;;;;;;;;;;5056252;28;20581;-86
2023/10/26 11:47:48;;;;;;;35.83;21.35;;;10.70;99.90;;;;;;5039865;28;20070;-85
2023/10/26 11:50:36;;;;;;;31.40;21.20;;;10.80;99.90;;;;;;5040310;28;20044;-84
2023/10/26 11:53:04;;;;;;;34.47;20.88;;;10.90;99.90;;;;;;5056679;28;20056;-81
2023/10/26 11:55:32;;;;;;;29.50;19.50;;;11.00;99.90;;;;;;5039826;28;20135;-82
2023/10/26 11:57:59;;;;;;;34.72;21.27;;;10.80;99.90;;;;;;5056814;28;20401;-91
2023/10/26 12:00:26;;;;;;;30.40;19.23;;;;;;;;;;5056239;28;20647;-81
2023/10/26 12:02:56;;;;;;;29.58;19.50;;;11.00;99.90;;;;;;5074363;28;20079;-84
2023/10/26 12:05:23;;;;;;;29.40;19.02;;;;;;;;;;5056472;28;20135;-81
2023/10/26 12:07:50;;;;;;;30.13;18.95;;;;;;;;;;5039957;28;20545;-84
2023/10/26 12:10:17;;;;;;;33.50;20.13;;;;;;;;;;5039670;28;20044;-78
2023/10/26 12:12:44;;;;;;;32.25;19.25;;;11.00;99.90;;;;;;5055841;28;20045;-88
2023/10/26 12:15:10;;;;;;;34.72;20.17;;;;;;;;;;5056677;28;20053;-89
2023/10/26 12:17:37;;;;;;;29.05;19.30;;;;;;;;;;5074682;28;20040;-89
2023/10/26 12:20:03;;;;;;;29.50;17.42;;;10.90;99.90;;;;;;5040113;28;20106;-91
2023/10/26 12:22:30;;;;;;;28.77;18.48;;;;;;;;;;5056397;28;20511;-78
2023/10/26 12:24:56;;;;;;;33.28;20.30;;;;;;;;;;5055718;28;20106;-79
2023/10/26 12:27:22;;;;;;;31.88;19.23;;;;;;;;;;5039359;28;20136;-80
2023/10/26 12:29:48;;;;;;;30.30;17.58;;;;;;;;;;5056297;28;20048;-84
2023/10/26 12:32:15;;;;;;;31.15;19.02;;;;;;;;;;5056426;28;20036;-81
2023/10/26 12:34:41;;;;;;;29.75;19.08;;;;;;;;;;5055347;28;20420;-77
2023/10/26 12:37:07;;;;;;;31.83;20.63;;;;;;;;;;5038930;28;20500;-79
2023/10/26 12:39:33;;;;;;;27.75;18.27;;;;;;;;;;5038963;28;20048;-85
2023/10/26 12:41:59;;;;;;;34.97;20.20;;;;;;;;;;5038351;28;20480;-83
2023/10/26 12:44:26;;;;;;;29.92;19.08;;;11.20;99.90;;;;;;5054864;28;20044;-84
2023/10/26 12:46:53;;;;;;;29.08;18.75;;;11.30;99.90;;;;;;5039179;28;20044;-77
2023/10/26 12:49:21;;;;;;;33.67;19.83;;;11.20;99.90;;;;;;5055019;28;20050;-84
2023/10/26 12:51:47;;;;;;;32.85;20.38;;;;;;;;;;5038932;28;20059;-77
2023/10/26 12:54:13;;;;;;;35.47;19.50;;;;;;;;;;5055134;28;20090;-77
2023/10/26 12:56:39;;;;;;;31.90;19.88;;;;;;;;;;5039810;28;20056;-87
2023/10/26 12:59:05;;;;;;;29.08;19.52;;;;;;;;;;5073256;28;20485;-86
2023/10/26 13:01:31;;;;;;;29.17;19.88;;;11.40;99.90;;;;;;5055876;28;20044;-86
2023/10/26 13:03:57;;;;;;;31.35;18.83;;;;;;;;;;5039210;28;20047;-90
2023/10/26 13:06:23;;;;;;;30.33;20.83;;;;;;;;;;5055327;28;20047;-84
2023/10/26 13:08:49;;;;;;;36.45;19.88;;;;;;;;;;5039141;28;20041;-88
2023/10/26 13:11:15;;;;;;;28.75;18.83;;;;;;;;;;5038977;28;20048;-84
2023/10/26 13:13:42;;;;;;;30.88;19.10;;;11.70;99.90;;;;;;5055549;28;20040;-85
2023/10/26 13:16:11;;;;;;;29.13;18.95;;;;;;;;;;5038383;28;20036;-86
2023/10/26 13:18:37;;;;;;;28.05;17.35;;;;;;;;;;5055231;28;20181;-86
2023/10/26 13:21:04;;;;;;;28.80;18.48;;;;;;;;;;5038832;28;20056;-87
2023/10/26 13:23:30;;;;;;;28.88;18.05;;;;;;;;;;5055426;28;20508;-92
2023/10/26 13:25:56;;;;;;;27.85;17.42;;;;;;;;;;5055165;28;20493;-89
2023/10/26 13:28:22;;;;;;;31.15;18.25;;;11.60;99.90;;;;;;5055499;28;20056;-84
2023/10/26 13:30:48;;;;;;;27.83;18.60;;;11.40;99.90;;;;;;5038798;28;20048;-93
2023/10/26 13:33:15;;;;;;;23.33;16.98;;;;;;;;;;5039113;28;20127;-87
2023/10/26 13:35:44;;;;;;;29.30;18.75;;;;;;;;;;5038490;28;20139;-93
2023/10/26 13:38:13;;;;;;;28.75;18.67;;;;;;;;;;5055560;28;20043;-92
2023/10/26 13:40:40;;;;;;;26.63;17.90;;;11.50;99.90;;;;;;5056624;28;20036;-92
2023/10/26 13:43:06;;;;;;;28.58;19.35;;;11.70;99.90;;;;;;5042331;28;20052;-90
2023/10/26 13:45:33;;;;;;;30.35;17.38;;;11.70;99.90;;;;;;5042209;28;20052;-90
2023/10/26 13:48:01;;;;;;;31.35;18.65;;;11.50;99.90;;;;;;5057335;28;20076;-83
2023/10/26 13:50:31;;;;;;;25.83;17.48;;;;;;;;;;5039282;28;20044;-92
2023/10/26 13:52:57;;;;;;;31.77;20.05;;;12.00;99.90;;;;;;5055410;28;20052;-93
2023/10/26 13:55:24;;;;;;;26.60;17.83;;;;;;;;;;5072770;28;20048;-93